Terminal Aerodrome Forecast
Issued by NWS Spokane, WA

Home | Current Version | Previous Version | Text Only | Print | Product List | Glossary On
Versions: 1 2 3 4 5 6 7 8 9 10 11 12 13
000
FTUS46 KOTX 241139
TAFEAT
TAF
KEAT 241139Z 2412/2512 29014KT P6SM SKC
     FM241400 30017G25KT P6SM FEW150
     FM242200 31023G34KT P6SM FEW080 SCT130
     FM250300 30012KT P6SM SCT120=

USA.gov is the U.S. government's official web portal to all federal, state and local government web resources and services.